Masljanino, Russia
Current Conditions -  °F | °C
As of 1:00 AM on Wednesday 22 Oct 2014 (Local Time) from UNBB Reporting Station
Broken Clouds Broken Clouds  
Wind Chill: 16°   Ceiling: 4000
Heat Index: 28°   Visibility: 6mi
Dew Point: 18°   Wind: 18mph
Humidity: 64%   Direction: 250°WSW
Pressure: 30.21"   Gusts: NA
Location:  54.34°N, 84.21°E
Report Text: UNBB 211800Z 25008MPS 9999 BKN040 M02/M08 Q1023 NOSIG RMKQFE745/0993 24CLRD66
Loading
Personal Weather Stations






























Interactive Weather Map
Tropical Storm Tracking
New forecast layout! Learn more

10-Day Weather Forecast

Advertisements
Track Severe Weather on mobile